Time;durP1;ratioP1;P1;durP2;ratioP2;P2;SDS_P1;SDS_P2;PMS_P1;PMS_P2;Temp;Humidity;BMP_temperature;BMP_pressure;BME280_temperature;BME280_humidity;BME280_pressure;Samples;Min_cycle;Max_cycle;Signal;HPM_P1;HPM_P2
2023/05/13 00:01:57;;;;;;;12.43;8.67;;;12.10;99.90;;;;;;5076744;28;20248;-65
2023/05/13 00:04:24;;;;;;;12.37;8.37;;;12.10;99.90;;;;;;5041014;28;20282;-66
2023/05/13 00:06:51;;;;;;;8.93;8.03;;;12.10;99.90;;;;;;5071098;28;20187;-67
2023/05/13 00:09:18;;;;;;;8.70;7.90;;;12.00;99.90;;;;;;5071354;28;20202;-67
2023/05/13 00:11:45;;;;;;;16.43;8.50;;;12.00;99.90;;;;;;5074962;28;20543;-67
2023/05/13 00:14:12;;;;;;;11.30;9.23;;;12.00;99.90;;;;;;5077305;28;20817;-67
2023/05/13 00:16:40;;;;;;;10.23;8.00;;;11.90;99.90;;;;;;5079244;28;20587;-67
2023/05/13 00:19:07;;;;;;;10.13;8.87;;;11.90;99.90;;;;;;5076787;28;20218;-67
2023/05/13 00:21:34;;;;;;;9.53;8.53;;;11.80;99.90;;;;;;5061696;28;20235;-67
2023/05/13 00:24:01;;;;;;;10.23;9.07;;;11.80;99.90;;;;;;5065286;28;20190;-67
2023/05/13 00:26:28;;;;;;;9.07;8.17;;;11.70;99.90;;;;;;5089914;28;20189;-67
2023/05/13 00:28:55;;;;;;;9.33;8.37;;;11.70;99.90;;;;;;5078971;28;20260;-67
2023/05/13 00:31:22;;;;;;;9.53;8.53;;;11.70;99.90;;;;;;5085457;28;20193;-68
2023/05/13 00:33:49;;;;;;;13.70;8.83;;;11.70;99.90;;;;;;5089184;28;20666;-67
2023/05/13 00:36:16;;;;;;;10.10;9.00;;;11.70;99.90;;;;;;5089872;28;20646;-68
2023/05/13 00:38:44;;;;;;;12.57;8.63;;;11.60;99.90;;;;;;5083363;28;20194;-68
2023/05/13 00:41:11;;;;;;;10.23;8.53;;;11.60;99.90;;;;;;5061350;28;20256;-68
2023/05/13 00:43:38;;;;;;;11.60;8.33;;;11.60;99.90;;;;;;5087661;28;20190;-67
2023/05/13 00:46:05;;;;;;;10.07;9.07;;;11.50;99.90;;;;;;5052479;28;20207;-67
2023/05/13 00:48:33;;;;;;;11.30;8.47;;;11.50;99.90;;;;;;5059616;28;20298;-68
2023/05/13 00:51:00;;;;;;;10.80;8.50;;;11.50;99.90;;;;;;5061035;28;20191;-69
2023/05/13 00:53:27;;;;;;;9.90;7.90;;;11.50;99.90;;;;;;5063725;28;20190;-68
2023/05/13 00:55:54;;;;;;;10.13;9.10;;;11.50;99.90;;;;;;5060831;27;20234;-67
2023/05/13 00:58:21;;;;;;;12.57;9.80;;;11.40;99.90;;;;;;5115212;27;20185;-67
2023/05/13 01:00:51;;;;;;;9.93;8.87;;;11.40;99.90;;;;;;5095765;28;20206;-66
2023/05/13 01:03:33;;;;;;;13.30;9.00;;;11.40;99.90;;;;;;5056454;28;20232;-68
2023/05/13 01:06:12;;;;;;;12.70;9.00;;;11.30;99.90;;;;;;5084801;27;20671;-67
2023/05/13 01:08:53;;;;;;;11.80;9.50;;;11.30;99.90;;;;;;5092534;28;20760;-64
2023/05/13 01:11:26;;;;;;;11.47;9.80;;;11.20;99.90;;;;;;5106746;27;20231;-66
2023/05/13 01:14:07;;;;;;;12.47;10.10;;;11.20;99.90;;;;;;5092135;28;20226;-65
2023/05/13 01:16:44;;;;;;;10.40;8.70;;;11.10;99.90;;;;;;5072892;28;20250;-65
2023/05/13 01:19:21;;;;;;;12.30;9.30;;;11.10;99.90;;;;;;5088092;28;20198;-65
2023/05/13 01:21:57;;;;;;;14.20;9.33;;;11.00;99.90;;;;;;5085996;28;20627;-65
2023/05/13 01:24:24;;;;;;;10.67;9.57;;;10.90;99.90;;;;;;5087808;28;20272;-65
2023/05/13 01:26:51;;;;;;;11.03;9.97;;;10.70;99.90;;;;;;5084427;28;20201;-63
2023/05/13 01:29:18;;;;;;;11.37;9.20;;;10.80;99.90;;;;;;5100979;28;20231;-64
2023/05/13 01:31:46;;;;;;;12.93;10.20;;;10.80;99.90;;;;;;5079256;28;20217;-63
2023/05/13 01:34:14;;;;;;;11.50;9.40;;;10.80;99.90;;;;;;5086700;28;20190;-64
2023/05/13 01:36:42;;;;;;;11.13;10.03;;;10.80;99.90;;;;;;5081085;28;20186;-63
2023/05/13 01:39:12;;;;;;;11.00;9.90;;;10.60;99.90;;;;;;5086031;27;20769;-64
2023/05/13 01:41:39;;;;;;;10.27;9.20;;;10.60;99.90;;;;;;5092070;28;20492;-63
2023/05/13 01:44:06;;;;;;;12.17;10.00;;;10.60;99.90;;;;;;5076272;28;20226;-63
2023/05/13 01:46:33;;;;;;;13.20;10.07;;;10.70;99.90;;;;;;5070334;28;20204;-63
2023/05/13 01:49:00;;;;;;;11.40;10.17;;;10.70;99.90;;;;;;5090292;28;20213;-63
2023/05/13 01:51:27;;;;;;;11.03;9.93;;;10.60;99.90;;;;;;5098254;28;20273;-63
2023/05/13 01:53:54;;;;;;;11.37;9.90;;;10.70;99.90;;;;;;5098006;28;20193;-63
2023/05/13 01:56:25;;;;;;;11.93;9.83;;;10.60;99.90;;;;;;5089375;28;20309;-63
2023/05/13 01:58:52;;;;;;;14.67;9.83;;;10.60;99.90;;;;;;5077412;28;20199;-63
2023/05/13 02:01:19;;;;;;;12.10;9.20;;;10.60;99.90;;;;;;5083313;28;20191;-63
2023/05/13 02:03:48;;;;;;;11.47;9.93;;;10.60;99.90;;;;;;5074812;28;20551;-65
2023/05/13 02:06:16;;;;;;;10.57;9.63;;;10.60;99.90;;;;;;5086799;28;20193;-63
2023/05/13 02:08:43;;;;;;;11.73;10.53;;;10.40;99.90;;;;;;5090477;28;20229;-64
2023/05/13 02:11:10;;;;;;;13.60;10.73;;;10.30;99.90;;;;;;5091017;28;20235;-63
2023/05/13 02:13:37;;;;;;;11.50;10.30;;;10.20;1.00;;;;;;5083216;28;20198;-62
2023/05/13 02:16:04;;;;;;;11.57;10.10;;;10.20;1.00;;;;;;5081571;27;20194;-62
2023/05/13 02:18:31;;;;;;;11.60;9.60;;;10.20;1.00;;;;;;5095973;28;20190;-63
2023/05/13 02:20:58;;;;;;;13.80;10.70;;;10.30;1.00;;;;;;5089871;28;20213;-63
2023/05/13 02:23:26;;;;;;;16.57;10.57;;;10.20;1.00;;;;;;5075730;28;20202;-62
2023/05/13 02:25:54;;;;;;;11.53;10.43;;;10.30;1.00;;;;;;5070851;28;20205;-63
2023/05/13 02:28:21;;;;;;;11.23;10.00;;;10.30;1.00;;;;;;5090407;28;20207;-63
2023/05/13 02:30:48;;;;;;;11.57;10.37;;;10.50;1.00;;;;;;5096005;28;20210;-63
2023/05/13 02:33:15;;;;;;;10.87;9.87;;;10.80;1.00;;;;;;5091500;28;20737;-64
2023/05/13 02:35:42;;;;;;;11.17;10.07;;;10.80;1.00;;;;;;5087298;28;20243;-63
2023/05/13 02:38:09;;;;;;;11.83;9.77;;;10.70;1.00;;;;;;5078518;28;20217;-64
2023/05/13 02:40:37;;;;;;;11.63;9.73;;;10.60;1.00;;;;;;5089107;28;20201;-66
2023/05/13 02:43:04;;;;;;;13.63;10.90;;;10.40;1.00;;;;;;5071105;28;20198;-66
2023/05/13 02:45:48;;;;;;;14.83;10.97;;;10.20;1.00;;;;;;5084085;28;20624;-65
2023/05/13 02:48:15;;;;;;;13.43;10.30;;;10.20;1.00;;;;;;5078142;28;20247;-65
2023/05/13 02:50:43;;;;;;;15.10;10.37;;;10.20;1.00;;;;;;5074643;28;20185;-65
2023/05/13 02:53:10;;;;;;;10.87;9.87;;;10.20;1.00;;;;;;5072776;28;21077;-66
2023/05/13 02:55:43;;;;;;;16.60;10.60;;;10.10;1.00;;;;;;5080139;28;20226;-65
2023/05/13 02:58:11;;;;;;;16.13;10.50;;;10.00;1.00;;;;;;5075176;28;20753;-64
2023/05/13 03:00:38;;;;;;;12.27;10.87;;;9.90;1.00;;;;;;5068352;28;20312;-63
2023/05/13 03:03:05;;;;;;;12.07;9.70;;;9.90;1.00;;;;;;5076250;28;20194;-63
2023/05/13 03:05:32;;;;;;;11.30;10.20;;;9.90;1.00;;;;;;5085958;28;20844;-62
2023/05/13 03:07:59;;;;;;;12.97;10.20;;;9.90;1.00;;;;;;5067060;28;20220;-62
2023/05/13 03:10:29;;;;;;;11.90;10.67;;;9.90;1.00;;;;;;5087205;28;20574;-63
2023/05/13 03:12:56;;;;;;;11.57;10.47;;;9.90;1.00;;;;;;5093900;28;20190;-62
2023/05/13 03:15:23;;;;;;;11.20;10.03;;;9.80;1.00;;;;;;5097979;28;20630;-63
2023/05/13 03:17:50;;;;;;;12.67;10.20;;;9.80;1.00;;;;;;5092281;28;20280;-63
2023/05/13 03:20:18;;;;;;;15.03;10.80;;;9.80;1.00;;;;;;5083771;28;20190;-63
2023/05/13 03:22:46;;;;;;;11.60;10.50;;;9.80;1.00;;;;;;5097857;28;20281;-62
2023/05/13 03:25:14;;;;;;;12.03;10.13;;;9.80;1.00;;;;;;5086409;28;20203;-64
2023/05/13 03:27:47;;;;;;;13.47;10.67;;;9.80;1.00;;;;;;5087144;28;20198;-63
2023/05/13 03:30:16;;;;;;;12.43;11.07;;;9.80;1.00;;;;;;5088346;28;20193;-63
2023/05/13 03:32:55;;;;;;;13.70;10.30;;;9.80;1.00;;;;;;5079452;28;20663;-62
2023/05/13 03:35:22;;;;;;;15.03;10.27;;;9.80;1.00;;;;;;5077873;28;20220;-63
2023/05/13 03:37:49;;;;;;;14.37;10.83;;;9.60;1.00;;;;;;5094528;28;20224;-63
2023/05/13 03:40:17;;;;;;;12.43;11.07;;;9.60;1.00;;;;;;5081993;28;20190;-63
2023/05/13 03:42:45;;;;;;;11.57;10.37;;;9.60;1.00;;;;;;5085274;28;20280;-63
2023/05/13 03:45:12;;;;;;;13.67;11.10;;;9.50;1.00;;;;;;5068832;28;20603;-64
2023/05/13 03:47:41;;;;;;;11.23;10.13;;;9.50;1.00;;;;;;5081297;28;20583;-63
2023/05/13 03:50:13;;;;;;;13.60;12.20;;;9.60;1.00;;;;;;5079934;28;20197;-64
2023/05/13 03:52:42;;;;;;;14.03;12.43;;;9.50;1.00;;;;;;5097512;28;20715;-64
2023/05/13 03:55:13;;;;;;;12.50;11.20;;;9.30;1.00;;;;;;5085656;28;20655;-63
2023/05/13 03:57:46;;;;;;;13.50;12.10;;;9.20;1.00;;;;;;5076198;28;20225;-64
2023/05/13 04:00:14;;;;;;;13.20;11.80;;;9.20;1.00;;;;;;5078698;28;20656;-65
2023/05/13 04:02:41;;;;;;;13.07;11.87;;;9.30;1.00;;;;;;5086243;28;20198;-64
2023/05/13 04:05:10;;;;;;;12.57;11.17;;;9.40;1.00;;;;;;5103655;28;20193;-64
2023/05/13 04:07:37;;;;;;;13.13;11.47;;;9.50;1.00;;;;;;5067686;28;20194;-62
2023/05/13 04:10:04;;;;;;;14.90;10.90;;;9.60;1.00;;;;;;5084658;28;20248;-61
2023/05/13 04:12:32;;;;;;;11.37;10.37;;;9.40;1.00;;;;;;5087102;28;20635;-61
2023/05/13 04:14:59;;;;;;;12.40;10.93;;;9.20;1.00;;;;;;5080198;28;20198;-63
2023/05/13 04:17:27;;;;;;;14.10;12.73;;;9.10;1.00;;;;;;5100237;28;20190;-63
2023/05/13 04:19:54;;;;;;;14.17;11.63;;;9.00;1.00;;;;;;5100640;28;20193;-62
2023/05/13 04:22:23;;;;;;;13.60;11.30;;;9.00;1.00;;;;;;5086522;28;20208;-65
2023/05/13 04:24:55;;;;;;;13.03;11.83;;;8.90;1.00;;;;;;5075861;28;20202;-63
2023/05/13 04:27:23;;;;;;;15.27;13.77;;;9.10;1.00;;;;;;5078311;28;20198;-62
2023/05/13 04:29:55;;;;;;;11.90;10.90;;;9.60;1.00;;;;;;5087478;28;20206;-61
2023/05/13 04:32:22;;;;;;;11.07;9.97;;;10.10;1.00;;;;;;5068793;28;20186;-62
2023/05/13 04:34:53;;;;;;;9.80;8.90;;;10.20;1.00;;;;;;5078355;28;20198;-61
2023/05/13 04:37:22;;;;;;;12.67;9.90;;;10.40;1.00;;;;;;5085350;28;20197;-63
2023/05/13 04:39:51;;;;;;;11.63;9.73;;;10.50;1.00;;;;;;5062186;28;20212;-62
2023/05/13 04:42:21;;;;;;;10.90;9.43;;;11.30;1.00;;;;;;5086647;28;20194;-64
2023/05/13 04:44:48;;;;;;;20.03;15.30;;;12.30;99.90;;;;;;5079569;28;20197;-65
2023/05/13 04:47:15;;;;;;;12.20;9.47;;;13.00;99.90;;;;;;5091929;28;20205;-64
2023/05/13 04:49:43;;;;;;;27.43;20.80;;;12.80;99.90;;;;;;5094180;28;20256;-60
2023/05/13 04:52:13;;;;;;;25.23;19.23;;;13.60;99.90;;;;;;5104947;28;20256;-65
2023/05/13 04:54:43;;;;;;;15.40;12.20;;;14.30;99.90;;;;;;5116410;28;20652;-64
2023/05/13 04:57:10;;;;;;;9.52;8.52;;;14.90;99.90;;;;;;5094311;28;20339;-64
2023/05/13 04:59:40;;;;;;;9.05;7.95;;;15.50;99.90;;;;;;5099589;28;20197;-63
2023/05/13 05:02:08;;;;;;;11.80;9.32;;;14.70;99.90;;;;;;5094446;28;20189;-61
2023/05/13 05:04:35;;;;;;;11.85;9.77;;;14.90;99.90;;;;;;5096768;28;20204;-65
2023/05/13 05:07:07;;;;;;;8.98;7.70;;;16.30;99.90;;;;;;5096728;28;20190;-62
2023/05/13 05:09:34;;;;;;;10.00;6.88;;;16.30;99.90;;;;;;5107376;28;20221;-63
2023/05/13 05:12:02;;;;;;;10.05;8.15;;;15.30;99.90;;;;;;5084355;28;20224;-61
2023/05/13 05:14:31;;;;;;;8.90;8.00;;;16.90;99.90;;;;;;5077853;28;20186;-64
2023/05/13 05:16:59;;;;;;;9.82;8.90;;;18.40;99.90;;;;;;5094174;27;20196;-61
2023/05/13 05:19:26;;;;;;;12.30;10.15;;;18.90;99.90;;;;;;5105498;27;20223;-63
2023/05/13 05:21:54;;;;;;;8.77;7.88;;;20.00;99.90;;;;;;5081881;28;20194;-62
2023/05/13 05:24:22;;;;;;;9.10;7.85;;;20.70;99.90;;;;;;5099282;27;20203;-62
2023/05/13 05:26:49;;;;;;;9.02;7.93;;;21.10;99.90;;;;;;5112950;27;20291;-61
2023/05/13 05:29:17;;;;;;;11.80;7.47;;;21.60;99.90;;;;;;5091832;27;20213;-61
2023/05/13 05:31:44;;;;;;;8.25;7.30;;;22.20;99.90;;;;;;5079999;27;20188;-62
2023/05/13 05:34:11;;;;;;;9.05;6.95;;;22.70;99.90;;;;;;5103972;27;20189;-60
2023/05/13 05:36:38;;;;;;;10.07;6.90;;;22.80;99.90;;;;;;5091688;27;20199;-60
2023/05/13 05:39:05;;;;;;;8.55;6.80;;;23.00;99.90;;;;;;5083839;27;20239;-59
2023/05/13 05:41:35;;;;;;;9.73;6.75;;;23.50;99.90;;;;;;5086674;27;20197;-61
2023/05/13 05:44:02;;;;;;;11.13;6.15;;;23.80;99.90;;;;;;5103737;27;20284;-61
2023/05/13 05:46:29;;;;;;;8.48;6.07;;;23.70;99.90;;;;;;5081123;27;20741;-60
2023/05/13 05:48:57;;;;;;;8.43;6.20;;;23.00;99.90;;;;;;5093518;28;20676;-61
2023/05/13 05:51:24;;;;;;;7.63;6.38;;;23.60;99.90;;;;;;5101703;27;20195;-60
2023/05/13 05:53:51;;;;;;;7.25;6.45;;;23.70;99.90;;;;;;5084764;28;20190;-60
2023/05/13 05:56:18;;;;;;;8.48;6.88;;;24.20;99.90;;;;;;5063489;28;20258;-60
2023/05/13 05:58:45;;;;;;;7.85;6.85;;;24.20;99.90;;;;;;5069274;28;20640;-59
2023/05/13 06:01:12;;;;;;;9.65;6.85;;;23.40;99.90;;;;;;5081170;28;20272;-62
2023/05/13 06:03:39;;;;;;;8.02;6.30;;;22.00;99.90;;;;;;5065402;28;20244;-62
2023/05/13 06:06:06;;;;;;;7.22;5.78;;;23.90;99.90;;;;;;5063374;28;20637;-61
2023/05/13 06:08:33;;;;;;;9.48;6.10;;;25.60;99.90;;;;;;5063843;28;20658;-61
2023/05/13 06:11:00;;;;;;;6.47;5.88;;;27.10;99.90;;;;;;5049026;28;20222;-61
2023/05/13 06:13:27;;;;;;;7.22;5.82;;;28.00;99.90;;;;;;5069312;28;20202;-60
2023/05/13 06:15:54;;;;;;;9.18;6.50;;;28.90;99.90;;;;;;5084357;28;20314;-59
2023/05/13 06:18:22;;;;;;;6.63;6.03;;;29.40;99.90;;;;;;5067264;28;20679;-61
2023/05/13 06:20:49;;;;;;;6.50;5.78;;;29.40;99.90;;;;;;5059212;28;20190;-62
2023/05/13 06:23:17;;;;;;;5.38;4.88;;;29.80;99.90;;;;;;5072218;28;20671;-61
2023/05/13 06:25:45;;;;;;;8.35;5.55;;;29.90;99.90;;;;;;5069666;28;20192;-61
2023/05/13 06:28:12;;;;;;;8.32;5.80;;;29.80;99.90;;;;;;5078010;28;20365;-62
2023/05/13 06:30:40;;;;;;;10.07;6.30;;;28.60;99.90;;;;;;5059476;28;20206;-62
2023/05/13 06:33:11;;;;;;;9.13;6.05;;;27.20;99.90;;;;;;5074847;28;20339;-61
2023/05/13 06:35:38;;;;;;;11.23;6.30;;;25.20;99.90;;;;;;5061418;28;20776;-63
2023/05/13 06:38:06;;;;;;;6.63;5.97;;;21.90;99.90;;;;;;5075875;28;20562;-62
2023/05/13 06:40:34;;;;;;;6.93;6.22;;;22.80;99.90;;;;;;5073054;28;20245;-62
2023/05/13 06:43:02;;;;;;;12.20;6.10;;;24.80;99.90;;;;;;5062264;28;20220;-61
2023/05/13 06:45:35;;;;;;;7.72;5.63;;;27.90;99.90;;;;;;5060662;28;20555;-62
2023/05/13 06:48:02;;;;;;;7.65;5.22;;;29.70;99.90;;;;;;5062236;28;20194;-62
2023/05/13 06:50:29;;;;;;;6.15;5.55;;;31.30;99.90;;;;;;5053871;28;20207;-62
2023/05/13 06:52:57;;;;;;;8.88;5.53;;;32.30;99.90;;;;;;5067239;28;20187;-62
2023/05/13 06:55:24;;;;;;;7.60;5.50;;;33.10;99.90;;;;;;5062411;28;20199;-62
2023/05/13 06:57:51;;;;;;;9.95;5.65;;;33.00;99.90;;;;;;5083282;28;20201;-61
2023/05/13 07:00:19;;;;;;;7.65;4.82;;;33.30;99.90;;;;;;5079151;28;20197;-60
2023/05/13 07:02:46;;;;;;;5.15;4.72;;;32.00;99.90;;;;;;5075026;28;20202;-64
2023/05/13 07:05:13;;;;;;;9.27;5.35;;;32.90;99.90;;;;;;5095474;28;20190;-63
2023/05/13 07:07:42;;;;;;;10.95;5.75;;;30.80;99.90;;;;;;5095332;28;20202;-63
2023/05/13 07:10:09;;;;;;;5.75;5.25;;;28.80;99.90;;;;;;5094205;27;20227;-63
2023/05/13 07:12:36;;;;;;;6.55;5.47;;;29.60;99.90;;;;;;5076659;28;20658;-63
2023/05/13 07:15:04;;;;;;;10.70;4.93;;;29.90;99.90;;;;;;5084525;28;20193;-63
2023/05/13 07:17:31;;;;;;;7.32;4.88;;;31.60;99.90;;;;;;5095279;28;20839;-63
2023/05/13 07:19:58;;;;;;;6.78;4.90;;;33.80;99.90;;;;;;5072392;28;20922;-63
2023/05/13 07:22:26;;;;;;;9.85;5.15;;;34.60;99.90;;;;;;5086207;28;20301;-64
2023/05/13 07:24:53;;;;;;;10.00;5.25;;;33.70;99.90;;;;;;5102177;28;20204;-63
2023/05/13 07:27:20;;;;;;;6.60;5.05;;;33.50;99.90;;;;;;5096037;28;20186;-63
2023/05/13 07:29:47;;;;;;;7.13;5.13;;;34.70;99.90;;;;;;5077962;28;20209;-63
2023/05/13 07:32:14;;;;;;;5.82;5.32;;;35.10;99.90;;;;;;5092038;27;20186;-63
2023/05/13 07:34:41;;;;;;;5.70;5.20;;;35.40;99.90;;;;;;5076426;28;20198;-65
2023/05/13 07:37:09;;;;;;;5.78;4.63;;;36.40;99.90;;;;;;5092546;28;20180;-64
2023/05/13 07:39:35;;;;;;;6.63;4.65;;;36.60;99.90;;;;;;5074912;28;20275;-63
2023/05/13 07:42:02;;;;;;;5.68;5.05;;;35.80;99.90;;;;;;5074849;28;20193;-63
2023/05/13 07:44:29;;;;;;;6.47;4.53;;;36.10;99.90;;;;;;5083374;28;20201;-62
2023/05/13 07:46:56;;;;;;;6.63;4.53;;;36.40;99.90;;;;;;5084673;28;20877;-62
2023/05/13 07:49:23;;;;;;;8.00;5.15;;;35.60;99.90;;;;;;5091124;27;20788;-62
2023/05/13 07:51:50;;;;;;;7.60;5.40;;;33.80;99.90;;;;;;5078272;28;20233;-63
2023/05/13 07:54:17;;;;;;;7.32;4.97;;;33.60;99.90;;;;;;5091579;28;20221;-63
2023/05/13 07:56:46;;;;;;;8.40;5.32;;;33.40;99.90;;;;;;5082942;27;20312;-63
2023/05/13 07:59:13;;;;;;;6.60;5.38;;;34.30;99.90;;;;;;5082523;28;20302;-63
2023/05/13 08:01:41;;;;;;;7.15;5.20;;;36.30;99.90;;;;;;5095316;28;20780;-63
2023/05/13 08:04:08;;;;;;;6.15;5.47;;;34.40;99.90;;;;;;5100603;28;20193;-63
2023/05/13 08:06:35;;;;;;;9.15;5.93;;;34.00;99.90;;;;;;5096554;28;20189;-64
2023/05/13 08:09:03;;;;;;;9.13;5.13;;;34.20;99.90;;;;;;5078293;28;20232;-64
2023/05/13 08:11:30;;;;;;;8.00;5.28;;;35.60;99.90;;;;;;5078455;28;20223;-64
2023/05/13 08:13:57;;;;;;;7.70;4.82;;;36.70;99.90;;;;;;5094085;28;20241;-64
2023/05/13 08:16:24;;;;;;;7.72;4.53;;;35.40;99.90;;;;;;5099230;28;20185;-64
2023/05/13 08:18:51;;;;;;;9.07;4.70;;;36.50;99.90;;;;;;5085915;28;20217;-64
2023/05/13 08:21:18;;;;;;;7.13;4.28;;;37.80;99.90;;;;;;5067034;28;20654;-65
2023/05/13 08:23:45;;;;;;;10.02;4.53;;;39.90;99.90;;;;;;5084017;28;20185;-62
2023/05/13 08:26:12;;;;;;;5.75;4.38;;;40.80;99.90;;;;;;5097059;28;20197;-63
2023/05/13 08:28:39;;;;;;;4.75;4.07;;;40.90;99.90;;;;;;5079806;28;20251;-63
2023/05/13 08:31:11;;;;;;;8.73;4.30;;;41.50;99.90;;;;;;5086207;28;20205;-62
2023/05/13 08:33:40;;;;;;;9.20;4.10;;;38.80;99.90;;;;;;5078855;28;20197;-62
2023/05/13 08:36:08;;;;;;;9.52;4.05;;;38.20;99.90;;;;;;5076022;28;20209;-63
2023/05/13 08:38:35;;;;;;;6.30;3.95;;;38.10;99.90;;;;;;5081542;28;20202;-63
2023/05/13 08:41:05;;;;;;;6.90;3.95;;;37.50;99.90;;;;;;5060541;28;20197;-62
2023/05/13 08:43:33;;;;;;;5.05;3.80;;;38.30;99.90;;;;;;5086508;28;20276;-63
2023/05/13 08:46:03;;;;;;;10.27;4.40;;;38.40;99.90;;;;;;5092101;28;20728;-63
2023/05/13 08:48:31;;;;;;;4.18;3.50;;;37.00;99.90;;;;;;5100058;28;20721;-62
2023/05/13 08:51:00;;;;;;;5.55;3.80;;;35.20;99.90;;;;;;5081532;28;20213;-62
2023/05/13 08:53:28;;;;;;;6.30;3.67;;;34.60;99.90;;;;;;5099900;28;20791;-66
2023/05/13 08:55:56;;;;;;;6.80;3.35;;;34.40;99.90;;;;;;5101248;28;20309;-64
2023/05/13 08:58:24;;;;;;;6.78;4.07;;;30.90;99.90;;;;;;5062267;28;20202;-62
2023/05/13 09:00:52;;;;;;;8.27;3.63;;;31.20;99.90;;;;;;5092548;28;20253;-63
2023/05/13 09:03:20;;;;;;;5.93;3.25;;;30.90;99.90;;;;;;5093958;28;20260;-63
2023/05/13 09:05:47;;;;;;;6.07;4.15;;;33.20;99.90;;;;;;5080715;28;20671;-63
2023/05/13 09:08:14;;;;;;;5.03;4.40;;;33.80;99.90;;;;;;5094556;28;20615;-63
2023/05/13 09:10:41;;;;;;;7.00;4.10;;;33.40;99.90;;;;;;5074749;28;20241;-63
2023/05/13 09:13:10;;;;;;;9.02;5.70;;;33.20;99.90;;;;;;5103225;28;20186;-63
2023/05/13 09:15:41;;;;;;;5.20;3.92;;;34.20;99.90;;;;;;5077342;28;20289;-63
2023/05/13 09:18:08;;;;;;;7.72;3.78;;;35.90;99.90;;;;;;5080867;27;20193;-63
2023/05/13 09:20:35;;;;;;;7.28;3.75;;;35.30;99.90;;;;;;5104126;28;20201;-62
2023/05/13 09:23:08;;;;;;;7.13;3.63;;;34.60;99.90;;;;;;5085802;28;20338;-64
2023/05/13 09:25:36;;;;;;;4.15;3.50;;;35.00;99.90;;;;;;5082412;28;20221;-63
2023/05/13 09:28:06;;;;;;;6.63;3.78;;;36.00;99.90;;;;;;5092618;28;20200;-63
2023/05/13 09:30:38;;;;;;;10.25;4.25;;;34.60;99.90;;;;;;5085208;28;23251;-64
2023/05/13 09:33:10;;;;;;;7.80;3.97;;;32.70;99.90;;;;;;5070056;28;20689;-63
2023/05/13 09:35:39;;;;;;;5.70;3.83;;;31.60;99.90;;;;;;5083990;28;20190;-63
2023/05/13 09:38:25;;;;;;;10.20;4.15;;;30.90;99.90;;;;;;5074311;28;20198;-64
2023/05/13 09:40:53;;;;;;;6.82;4.05;;;31.10;99.90;;;;;;5107124;27;20205;-64
2023/05/13 09:43:30;;;;;;;5.00;3.95;;;31.40;99.90;;;;;;5079957;27;20216;-64
2023/05/13 09:46:03;;;;;;;9.45;4.03;;;32.60;99.90;;;;;;5083226;27;20610;-63
2023/05/13 09:48:33;;;;;;;5.40;3.63;;;31.70;99.90;;;;;;5102632;27;20978;-63
2023/05/13 09:51:00;;;;;;;4.53;4.00;;;31.30;99.90;;;;;;5072111;27;20306;-63
2023/05/13 09:53:28;;;;;;;4.68;4.10;;;31.80;99.90;;;;;;5093450;28;20186;-63
2023/05/13 09:55:56;;;;;;;4.97;4.43;;;31.60;99.90;;;;;;5083116;28;20221;-63
2023/05/13 09:58:27;;;;;;;6.35;4.00;;;31.70;99.90;;;;;;5095882;27;21072;-68
2023/05/13 10:00:54;;;;;;;5.68;3.88;;;30.90;99.90;;;;;;5056912;28;20260;-63
2023/05/13 10:03:21;;;;;;;7.32;4.25;;;32.00;99.90;;;;;;5091440;27;20252;-63
2023/05/13 10:05:51;;;;;;;9.15;4.53;;;32.10;99.90;;;;;;5078609;28;20206;-65
2023/05/13 10:08:18;;;;;;;5.85;3.70;;;32.80;99.90;;;;;;5103819;27;20661;-63
2023/05/13 10:10:48;;;;;;;5.30;3.40;;;34.40;99.90;;;;;;5094352;27;20260;-63
2023/05/13 10:13:18;;;;;;;4.90;3.80;;;33.50;99.90;;;;;;5078185;28;20558;-63
2023/05/13 10:15:53;;;;;;;6.45;3.88;;;34.00;99.90;;;;;;5080249;28;20639;-63
2023/05/13 10:18:22;;;;;;;5.18;4.00;;;34.20;99.90;;;;;;5081698;28;20681;-63
2023/05/13 10:20:51;;;;;;;5.93;3.67;;;32.80;99.90;;;;;;5100649;27;20193;-63
2023/05/13 10:23:22;;;;;;;5.38;4.18;;;32.40;99.90;;;;;;5089122;28;20699;-63
2023/05/13 10:25:52;;;;;;;5.53;3.95;;;31.90;99.90;;;;;;5065784;27;20201;-63
2023/05/13 10:28:20;;;;;;;7.22;4.03;;;31.80;99.90;;;;;;5085176;28;20293;-65
2023/05/13 10:30:50;;;;;;;5.93;3.53;;;32.00;99.90;;;;;;5089758;28;20217;-60
2023/05/13 10:33:17;;;;;;;6.82;3.83;;;33.40;99.90;;;;;;5104187;28;20205;-61
2023/05/13 10:36:24;;;;;;;7.57;4.30;;;33.90;99.90;;;;;;5082285;28;20651;-60
2023/05/13 10:38:54;;;;;;;7.60;3.60;;;33.40;99.90;;;;;;5079261;28;20197;-59
2023/05/13 10:41:59;;;;;;;4.25;3.35;;;31.60;99.90;;;;;;5096757;28;20654;-59
2023/05/13 10:44:26;;;;;;;6.97;3.50;;;32.40;99.90;;;;;;5064332;28;20205;-60
2023/05/13 10:46:55;;;;;;;5.93;3.30;;;32.50;99.90;;;;;;5081985;28;20201;-59
2023/05/13 10:49:25;;;;;;;5.13;3.65;;;33.00;99.90;;;;;;5104142;27;20732;-61
2023/05/13 10:51:52;;;;;;;4.78;3.38;;;32.50;99.90;;;;;;5066399;28;20591;-60
2023/05/13 10:54:21;;;;;;;6.30;3.60;;;32.90;99.90;;;;;;5102607;28;20212;-61
2023/05/13 10:56:58;;;;;;;8.35;3.83;;;32.70;99.90;;;;;;5101311;28;20222;-61
2023/05/13 10:59:29;;;;;;;6.82;4.22;;;29.90;99.90;;;;;;5076961;28;20646;-60
2023/05/13 11:01:59;;;;;;;7.43;4.20;;;29.30;99.90;;;;;;5079770;28;20250;-62
2023/05/13 11:04:26;;;;;;;8.05;3.60;;;29.90;99.90;;;;;;5101711;28;20212;-61
2023/05/13 11:06:53;;;;;;;7.13;3.80;;;30.60;99.90;;;;;;5081240;28;20244;-60
2023/05/13 11:09:27;;;;;;;8.38;4.13;;;30.00;99.90;;;;;;5080511;28;20266;-61
2023/05/13 11:11:57;;;;;;;7.97;4.28;;;30.30;99.90;;;;;;5083717;28;20205;-61
2023/05/13 11:14:25;;;;;;;6.15;4.05;;;29.10;99.90;;;;;;5067237;28;20206;-62
2023/05/13 11:17:03;;;;;;;6.70;3.72;;;29.10;99.90;;;;;;5085677;28;20303;-63
2023/05/13 11:19:36;;;;;;;4.72;3.97;;;29.50;99.90;;;;;;5080032;28;20177;-62
2023/05/13 11:22:20;;;;;;;5.78;3.33;;;28.60;99.90;;;;;;5085390;28;20726;-62
2023/05/13 11:25:09;;;;;;;5.55;3.92;;;29.30;99.90;;;;;;5079149;28;21639;-61
2023/05/13 11:27:41;;;;;;;5.10;3.45;;;28.80;99.90;;;;;;5102667;28;20301;-63
2023/05/13 11:30:20;;;;;;;4.57;3.70;;;28.70;99.90;;;;;;5101360;28;20205;-61
2023/05/13 11:32:55;;;;;;;5.00;3.08;;;28.50;99.90;;;;;;5082810;28;20197;-62
2023/05/13 11:35:31;;;;;;;4.28;3.50;;;28.70;99.90;;;;;;5106718;27;20192;-61
2023/05/13 11:38:00;;;;;;;7.55;3.47;;;29.30;99.90;;;;;;5084249;28;20197;-61
2023/05/13 11:40:32;;;;;;;4.75;3.90;;;28.70;99.90;;;;;;5096281;28;20239;-60
2023/05/13 11:43:00;;;;;;;8.50;4.13;;;28.90;99.90;;;;;;5058536;28;20206;-61
2023/05/13 11:45:28;;;;;;;8.93;3.78;;;27.60;99.90;;;;;;5088725;28;20202;-60
2023/05/13 11:47:56;;;;;;;5.45;3.83;;;27.10;99.90;;;;;;5094701;27;20605;-63
2023/05/13 11:50:28;;;;;;;4.68;3.53;;;26.30;99.90;;;;;;5078259;28;20287;-62
2023/05/13 11:52:57;;;;;;;6.57;3.10;;;25.70;99.90;;;;;;5093826;28;20539;-64
2023/05/13 11:55:25;;;;;;;4.30;3.03;;;25.90;99.90;;;;;;5076087;28;20206;-61
2023/05/13 11:57:53;;;;;;;4.88;3.20;;;27.30;99.90;;;;;;5089155;27;20213;-61
2023/05/13 12:00:31;;;;;;;4.10;3.10;;;28.00;99.90;;;;;;5078379;28;20239;-62
2023/05/13 12:03:00;;;;;;;6.63;2.83;;;28.00;99.90;;;;;;5100888;28;20197;-61
2023/05/13 12:05:27;;;;;;;6.20;3.33;;;28.10;99.90;;;;;;5078948;28;20255;-61
2023/05/13 12:07:57;;;;;;;5.18;3.10;;;28.00;99.90;;;;;;5097585;28;20185;-61
2023/05/13 12:10:25;;;;;;;4.40;3.40;;;28.30;99.90;;;;;;5093136;28;20698;-61
2023/05/13 12:12:53;;;;;;;10.82;3.70;;;27.10;99.90;;;;;;5080657;28;20209;-61
2023/05/13 12:15:21;;;;;;;7.65;3.53;;;26.50;99.90;;;;;;5092917;28;20189;-62
2023/05/13 12:17:49;;;;;;;5.78;3.20;;;26.30;99.90;;;;;;5085574;28;20230;-62
2023/05/13 12:20:23;;;;;;;5.57;3.20;;;26.20;99.90;;;;;;5081308;28;20224;-63
2023/05/13 12:22:53;;;;;;;4.95;3.28;;;25.60;99.90;;;;;;5074579;28;20269;-64
2023/05/13 12:25:35;;;;;;;6.20;3.30;;;25.50;99.90;;;;;;5082106;28;20194;-61
2023/05/13 12:28:24;;;;;;;6.35;3.63;;;26.10;99.90;;;;;;5111633;27;20193;-62
2023/05/13 12:30:55;;;;;;;6.72;3.20;;;27.00;99.90;;;;;;5109145;28;20213;-63
2023/05/13 12:33:29;;;;;;;9.23;3.15;;;27.30;99.90;;;;;;5065389;28;20194;-62
2023/05/13 12:36:18;;;;;;;8.18;3.65;;;27.70;99.90;;;;;;5078176;28;20224;-62
2023/05/13 12:39:05;;;;;;;4.03;3.63;;;27.20;99.90;;;;;;5097614;28;20186;-62
2023/05/13 12:41:38;;;;;;;10.95;3.95;;;26.80;99.90;;;;;;5104775;28;20666;-61
2023/05/13 12:44:10;;;;;;;8.93;3.67;;;26.10;99.90;;;;;;5078486;28;20243;-61
2023/05/13 12:46:38;;;;;;;7.05;3.55;;;25.80;99.90;;;;;;5086282;28;20250;-63
2023/05/13 12:49:08;;;;;;;5.55;3.95;;;25.80;99.90;;;;;;5092743;28;20202;-63
2023/05/13 12:51:35;;;;;;;6.57;3.45;;;25.50;99.90;;;;;;5072100;28;20213;-62
2023/05/13 12:54:02;;;;;;;7.90;4.00;;;24.90;99.90;;;;;;5110205;28;20201;-66